createdAt,value
2023-04-15T00:01:13.195Z,2.00
2023-04-15T00:03:40.156Z,1.90
2023-04-15T00:06:07.568Z,2.00
2023-04-15T00:08:34.443Z,1.42
2023-04-15T00:11:03.287Z,2.38
2023-04-15T00:13:30.215Z,1.63
2023-04-15T00:15:57.345Z,1.90
2023-04-15T00:18:24.889Z,2.13
2023-04-15T00:20:52.454Z,1.83
2023-04-15T00:23:19.478Z,1.88
2023-04-15T00:25:46.866Z,1.77
2023-04-15T00:28:13.864Z,1.92
2023-04-15T00:30:40.704Z,1.50
2023-04-15T00:33:07.928Z,1.80
2023-04-15T00:35:35.795Z,1.83
2023-04-15T00:38:04.812Z,1.55
2023-04-15T00:40:31.629Z,1.95
2023-04-15T00:42:58.404Z,1.80
2023-04-15T00:45:26.490Z,1.80
2023-04-15T00:47:54.337Z,1.70
2023-04-15T00:50:21.214Z,1.80
2023-04-15T00:52:49.125Z,1.63
2023-04-15T00:55:16.164Z,1.60
2023-04-15T00:57:43.067Z,1.33
2023-04-15T01:00:11.800Z,1.30
2023-04-15T01:02:39.644Z,1.70
2023-04-15T01:05:08.365Z,1.83
2023-04-15T01:07:35.719Z,1.75
2023-04-15T01:10:04.438Z,1.88
2023-04-15T01:12:33.332Z,1.90
2023-04-15T01:15:00.675Z,2.00
2023-04-15T01:17:28.166Z,2.78
2023-04-15T01:19:57.984Z,1.73
2023-04-15T01:22:27.090Z,1.85
2023-04-15T01:25:10.789Z,2.05
2023-04-15T01:27:40.900Z,2.00
2023-04-15T01:30:09.223Z,1.70
2023-04-15T01:32:37.189Z,2.10
2023-04-15T01:35:04.977Z,2.30
2023-04-15T01:37:32.920Z,2.08
2023-04-15T01:40:00.199Z,1.83
2023-04-15T01:42:27.751Z,1.90
2023-04-15T01:44:54.939Z,1.90
2023-04-15T01:47:22.391Z,2.50
2023-04-15T01:49:49.350Z,1.98
2023-04-15T01:52:16.290Z,2.08
2023-04-15T01:54:43.277Z,2.13
2023-04-15T01:57:12.122Z,2.73
2023-04-15T01:59:38.999Z,2.38
2023-04-15T02:02:06.337Z,2.58
2023-04-15T02:04:34.467Z,2.45
2023-04-15T02:07:01.706Z,2.30
2023-04-15T02:09:29.180Z,2.67
2023-04-15T02:11:56.449Z,2.70
2023-04-15T02:14:24.688Z,2.70
2023-04-15T02:16:51.815Z,3.13
2023-04-15T02:19:18.856Z,2.53
2023-04-15T02:21:45.673Z,1.52
2023-04-15T02:24:12.527Z,1.60
2023-04-15T02:26:41.487Z,2.03
2023-04-15T02:29:08.406Z,1.90
2023-04-15T02:31:40.328Z,2.50
2023-04-15T02:34:07.349Z,2.65
2023-04-15T02:36:34.643Z,2.38
2023-04-15T02:39:02.176Z,1.80
2023-04-15T02:41:30.408Z,2.25
2023-04-15T02:43:58.038Z,2.40
2023-04-15T02:46:24.992Z,1.77
2023-04-15T02:48:53.286Z,1.80
2023-04-15T02:51:25.896Z,2.10
2023-04-15T02:53:52.732Z,1.80
2023-04-15T02:56:19.875Z,2.10
2023-04-15T02:58:50.454Z,2.05
2023-04-15T03:01:17.317Z,1.70
2023-04-15T03:03:44.473Z,1.98
2023-04-15T03:06:11.662Z,2.10
2023-04-15T03:08:38.500Z,2.30
2023-04-15T03:11:05.613Z,2.00
2023-04-15T03:13:33.846Z,2.10
2023-04-15T03:16:09.005Z,2.00
2023-04-15T03:18:36.203Z,2.10
2023-04-15T03:21:04.091Z,1.85
2023-04-15T03:23:34.670Z,1.60
2023-04-15T03:26:04.224Z,2.05
2023-04-15T03:28:32.891Z,2.38
2023-04-15T03:31:01.328Z,2.00
2023-04-15T03:33:29.563Z,2.00
2023-04-15T03:35:56.661Z,1.80
2023-04-15T03:38:23.569Z,2.42
2023-04-15T03:40:50.494Z,2.80
2023-04-15T03:43:17.327Z,2.47
2023-04-15T03:45:44.448Z,3.25
2023-04-15T03:48:17.671Z,2.45
2023-04-15T03:50:45.959Z,2.28
2023-04-15T03:53:12.862Z,2.78
2023-04-15T03:55:39.997Z,2.30
2023-04-15T03:58:06.984Z,2.58
2023-04-15T04:00:34.039Z,2.40
2023-04-15T04:03:01.087Z,2.65
2023-04-15T04:05:28.190Z,2.08
2023-04-15T04:07:55.341Z,2.42
2023-04-15T04:10:22.467Z,2.03
2023-04-15T04:12:49.713Z,2.15
2023-04-15T04:15:17.010Z,2.47
2023-04-15T04:17:43.841Z,2.05
2023-04-15T04:20:12.505Z,2.20
2023-04-15T04:22:40.510Z,2.10
2023-04-15T04:25:11.328Z,1.80
2023-04-15T04:27:38.396Z,2.28
2023-04-15T04:30:17.836Z,2.00
2023-04-15T04:32:54.997Z,1.92
2023-04-15T04:35:27.324Z,2.40
2023-04-15T04:37:59.119Z,2.03
2023-04-15T04:40:26.588Z,1.83
2023-04-15T04:42:54.666Z,1.70
2023-04-15T04:45:22.807Z,1.60
2023-04-15T04:47:49.858Z,2.30
2023-04-15T04:50:17.944Z,2.40
2023-04-15T04:52:44.807Z,2.20
2023-04-15T04:55:12.647Z,2.15
2023-04-15T04:57:39.778Z,2.58
2023-04-15T05:00:13.115Z,2.10
2023-04-15T05:02:42.403Z,2.70
2023-04-15T05:05:16.597Z,2.28
2023-04-15T05:07:44.023Z,1.88
2023-04-15T05:10:19.500Z,1.98
2023-04-15T05:12:50.613Z,1.98
2023-04-15T05:15:20.891Z,2.20
2023-04-15T05:17:48.473Z,1.80
2023-04-15T05:20:16.260Z,2.30
2023-04-15T05:22:47.564Z,2.05
2023-04-15T05:25:15.290Z,2.17
2023-04-15T05:27:42.253Z,2.45
2023-04-15T05:30:13.444Z,2.40
2023-04-15T05:32:41.998Z,2.42
2023-04-15T05:35:12.867Z,2.63
2023-04-15T05:37:40.862Z,2.20
2023-04-15T05:40:11.802Z,2.38
2023-04-15T05:42:41.917Z,2.35
2023-04-15T05:45:09.785Z,2.50
2023-04-15T05:47:37.780Z,2.78
2023-04-15T05:50:10.345Z,2.72
2023-04-15T05:52:38.154Z,2.90
2023-04-15T05:55:06.726Z,2.53
2023-04-15T05:57:37.607Z,2.63
2023-04-15T06:00:09.209Z,2.15
2023-04-15T06:02:39.393Z,2.58
2023-04-15T06:05:16.002Z,2.28
2023-04-15T06:07:44.063Z,2.78
2023-04-15T06:10:12.214Z,2.50
2023-04-15T06:12:39.745Z,2.53
2023-04-15T06:15:11.341Z,2.47
2023-04-15T06:17:38.521Z,2.60
2023-04-15T06:20:06.725Z,2.70
2023-04-15T06:22:34.004Z,2.10
2023-04-15T06:25:01.495Z,2.35
2023-04-15T06:27:29.037Z,2.58
2023-04-15T06:29:56.616Z,2.80
2023-04-15T06:32:24.574Z,2.38
2023-04-15T06:34:52.250Z,2.40
2023-04-15T06:37:22.669Z,2.80
2023-04-15T06:39:51.148Z,2.70
2023-04-15T06:42:18.155Z,2.20
2023-04-15T06:44:45.244Z,2.90
2023-04-15T06:47:15.433Z,2.40
2023-04-15T06:49:43.245Z,2.53
2023-04-15T06:52:11.304Z,2.38
2023-04-15T06:54:39.181Z,2.42
2023-04-15T06:57:07.884Z,2.20
2023-04-15T06:59:34.985Z,2.40
2023-04-15T07:02:02.168Z,2.50
2023-04-15T07:04:29.582Z,2.70
2023-04-15T07:06:57.856Z,2.53
2023-04-15T07:09:25.548Z,2.97
2023-04-15T07:12:24.413Z,3.67
2023-04-15T07:14:52.153Z,3.15
2023-04-15T07:17:19.059Z,4.55
2023-04-15T07:19:46.420Z,3.15
2023-04-15T07:22:13.601Z,3.50
2023-04-15T07:24:44.617Z,3.20
2023-04-15T07:27:12.112Z,2.80
2023-04-15T07:29:39.512Z,2.55
2023-04-15T07:32:07.689Z,2.50
2023-04-15T07:34:35.256Z,2.45
2023-04-15T07:37:02.621Z,2.33
2023-04-15T07:39:30.089Z,2.40
2023-04-15T07:41:57.130Z,2.40
2023-04-15T07:44:25.105Z,2.58
2023-04-15T07:46:52.757Z,2.38
2023-04-15T07:49:21.548Z,2.25
2023-04-15T07:51:50.429Z,2.95
2023-04-15T07:54:18.478Z,2.00
2023-04-15T07:56:46.377Z,2.30
2023-04-15T07:59:18.612Z,2.20
2023-04-15T08:01:45.617Z,2.05
2023-04-15T08:04:13.875Z,1.90
2023-04-15T08:06:40.991Z,1.98
2023-04-15T08:09:08.545Z,1.95
2023-04-15T08:11:36.756Z,1.85
2023-04-15T08:14:04.474Z,1.83
2023-04-15T08:16:33.546Z,2.00
2023-04-15T08:19:01.235Z,1.30
2023-04-15T08:21:35.561Z,1.48
2023-04-15T08:24:07.369Z,1.20
2023-04-15T08:26:34.383Z,1.20
2023-04-15T08:29:04.759Z,1.10
2023-04-15T08:31:32.710Z,1.65
2023-04-15T08:34:00.773Z,1.35
2023-04-15T08:36:29.123Z,1.05
2023-04-15T08:38:56.809Z,1.27
2023-04-15T08:41:36.109Z,1.10
2023-04-15T08:44:06.666Z,1.08
2023-04-15T08:46:37.160Z,0.88
2023-04-15T08:49:13.248Z,1.13
2023-04-15T08:51:46.878Z,1.00
2023-04-15T08:54:15.713Z,1.02
2023-04-15T08:56:43.453Z,0.90
2023-04-15T08:59:11.346Z,0.98
2023-04-15T09:01:41.487Z,1.00
2023-04-15T09:04:09.051Z,1.30
2023-04-15T09:06:36.390Z,1.08
2023-04-15T09:09:14.668Z,1.10
2023-04-15T09:11:43.307Z,1.60
2023-04-15T09:14:10.869Z,1.10
2023-04-15T09:17:01.453Z,1.20
2023-04-15T09:19:30.173Z,1.00
2023-04-15T09:22:06.465Z,1.10
2023-04-15T09:24:42.389Z,1.38
2023-04-15T09:27:11.460Z,1.08
2023-04-15T09:29:43.091Z,0.98
2023-04-15T09:32:18.336Z,1.20
2023-04-15T09:34:49.185Z,1.00
2023-04-15T09:37:31.607Z,0.80
2023-04-15T09:39:59.568Z,1.02
2023-04-15T09:42:30.453Z,1.02
2023-04-15T09:45:12.250Z,1.08
2023-04-15T09:47:40.849Z,1.00
2023-04-15T09:50:12.332Z,1.20
2023-04-15T09:52:46.863Z,1.40
2023-04-15T09:55:17.242Z,1.00
2023-04-15T09:57:47.495Z,1.30
2023-04-15T10:00:16.505Z,1.02
2023-04-15T10:02:44.657Z,1.23
2023-04-15T10:05:15.515Z,1.00
2023-04-15T10:07:42.957Z,1.13
2023-04-15T10:10:14.256Z,1.17
2023-04-15T10:12:43.370Z,1.25
2023-04-15T10:15:28.397Z,1.45
2023-04-15T10:18:01.353Z,1.42
2023-04-15T10:20:33.752Z,1.20
2023-04-15T10:23:03.012Z,1.35
2023-04-15T10:25:35.944Z,1.20
2023-04-15T10:28:03.691Z,1.23
2023-04-15T10:30:33.725Z,1.50
2023-04-15T10:33:05.310Z,1.25
2023-04-15T10:35:40.948Z,1.23
2023-04-15T10:38:43.520Z,1.30
2023-04-15T10:41:28.208Z,1.38
2023-04-15T10:44:07.025Z,1.40
2023-04-15T10:46:43.839Z,1.52
2023-04-15T10:49:17.417Z,1.38
2023-04-15T10:51:59.870Z,1.77
2023-04-15T10:54:28.657Z,2.17
2023-04-15T10:57:01.768Z,2.10
2023-04-15T11:00:00.596Z,2.00
2023-04-15T11:03:08.336Z,1.92
2023-04-15T11:05:56.297Z,1.90
2023-04-15T11:09:01.888Z,2.00
2023-04-15T11:12:08.999Z,1.90
2023-04-15T11:14:41.912Z,1.50
2023-04-15T11:17:09.559Z,1.70
2023-04-15T11:19:43.625Z,1.90
2023-04-15T11:22:11.841Z,2.08
2023-04-15T11:24:52.220Z,1.77
2023-04-15T11:27:23.951Z,2.28
2023-04-15T11:29:52.808Z,1.70
2023-04-15T11:32:23.559Z,1.80
2023-04-15T11:35:04.688Z,2.10
2023-04-15T11:37:32.485Z,2.35
2023-04-15T11:40:07.305Z,2.78
2023-04-15T11:42:48.729Z,2.45
2023-04-15T11:45:17.064Z,2.15
2023-04-15T11:47:53.647Z,2.28
2023-04-15T11:50:26.132Z,3.03
2023-04-15T11:53:01.367Z,2.85
2023-04-15T11:55:29.985Z,2.65
2023-04-15T11:58:14.456Z,2.50
2023-04-15T12:00:54.636Z,3.08
2023-04-15T12:03:42.596Z,2.93
2023-04-15T12:06:22.637Z,3.28
2023-04-15T12:11:53.875Z,2.22
2023-04-15T12:14:33.865Z,2.30
2023-04-15T12:19:43.224Z,2.00
2023-04-15T12:22:16.844Z,2.53
2023-04-15T12:24:48.126Z,2.67
2023-04-15T12:27:17.257Z,2.92
2023-04-15T12:29:45.389Z,3.40
2023-04-15T12:32:14.794Z,3.30
2023-04-15T12:34:58.636Z,3.00
2023-04-15T12:37:26.604Z,2.92
2023-04-15T12:39:56.020Z,3.22
2023-04-15T12:42:23.531Z,2.65
2023-04-15T12:44:51.441Z,2.72
2023-04-15T12:47:19.224Z,2.65
2023-04-15T12:49:49.715Z,2.47
2023-04-15T12:52:16.832Z,2.65
2023-04-15T12:54:44.885Z,2.42
2023-04-15T12:57:12.242Z,2.40
2023-04-15T12:59:43.200Z,2.78
2023-04-15T13:02:14.218Z,3.15
2023-04-15T13:04:42.018Z,2.63
2023-04-15T13:07:14.490Z,2.90
2023-04-15T13:09:44.841Z,2.47
2023-04-15T13:12:13.986Z,2.38
2023-04-15T13:14:41.398Z,2.57
2023-04-15T13:17:10.196Z,2.42
2023-04-15T13:19:37.190Z,2.58
2023-04-15T13:22:04.020Z,2.60
2023-04-15T13:24:31.026Z,2.47
2023-04-15T13:26:59.168Z,2.47
2023-04-15T13:29:26.489Z,2.45
2023-04-15T13:31:53.380Z,2.30
2023-04-15T13:34:20.212Z,2.50
2023-04-15T13:36:47.264Z,2.20
2023-04-15T13:39:14.139Z,1.98
2023-04-15T13:41:41.673Z,2.28
2023-04-15T13:44:09.537Z,1.77
2023-04-15T13:46:37.990Z,2.40
2023-04-15T13:49:04.879Z,2.30
2023-04-15T13:51:33.253Z,2.22
2023-04-15T13:54:07.254Z,2.65
2023-04-15T13:56:42.604Z,2.38
2023-04-15T13:59:10.208Z,2.50
2023-04-15T14:01:37.128Z,2.70
2023-04-15T14:04:05.420Z,2.00
2023-04-15T14:06:33.856Z,2.00
2023-04-15T14:09:00.892Z,2.38
2023-04-15T14:11:30.176Z,1.98
2023-04-15T14:14:06.975Z,1.77
2023-04-15T14:16:37.856Z,1.52
2023-04-15T14:19:18.899Z,1.88
2023-04-15T14:24:15.661Z,2.00
2023-04-15T14:29:13.205Z,1.67
2023-04-15T14:31:44.781Z,1.83
2023-04-15T14:34:32.086Z,1.83
2023-04-15T14:36:59.129Z,1.80
2023-04-15T14:39:29.083Z,2.17
2023-04-15T14:42:02.292Z,1.88
2023-04-15T14:44:39.474Z,2.10
2023-04-15T14:47:07.675Z,2.17
2023-04-15T14:49:37.541Z,4.18
2023-04-15T14:52:07.428Z,2.80
2023-04-15T14:57:04.185Z,2.20
2023-04-15T14:59:32.217Z,2.13
2023-04-15T15:01:59.922Z,2.33
2023-04-15T15:04:33.749Z,1.95
2023-04-15T15:07:01.763Z,2.00
2023-04-15T15:09:30.419Z,2.00
2023-04-15T15:12:01.534Z,2.53
2023-04-15T15:14:28.692Z,2.35
2023-04-15T15:16:58.584Z,2.15
2023-04-15T15:19:29.156Z,2.00
2023-04-15T15:21:57.118Z,1.70
2023-04-15T15:24:24.550Z,1.75
2023-04-15T15:26:52.517Z,1.75
2023-04-15T15:29:22.204Z,1.98
2023-04-15T15:31:50.462Z,1.60
2023-04-15T15:34:20.903Z,1.48
2023-04-15T15:36:51.889Z,1.90
2023-04-15T15:39:19.108Z,1.90
2023-04-15T15:41:45.951Z,1.80
2023-04-15T15:44:13.369Z,1.60
2023-04-15T15:46:40.850Z,2.60
2023-04-15T15:49:12.889Z,1.50
2023-04-15T15:51:40.113Z,1.40
2023-04-15T15:54:07.238Z,1.27
2023-04-15T15:56:39.163Z,1.40
2023-04-15T15:59:07.962Z,1.00
2023-04-15T16:01:36.867Z,1.20
2023-04-15T16:04:12.135Z,1.10
2023-04-15T16:06:41.175Z,0.93
2023-04-15T16:09:08.184Z,0.85
2023-04-15T16:11:35.381Z,0.90
2023-04-15T16:14:03.609Z,1.00
2023-04-15T16:16:31.626Z,0.95
2023-04-15T16:18:59.069Z,1.05
2023-04-15T16:21:27.548Z,1.13
2023-04-15T16:23:55.181Z,1.20
2023-04-15T16:26:27.787Z,1.10
2023-04-15T16:28:56.452Z,1.17
2023-04-15T16:31:27.022Z,1.27
2023-04-15T16:33:54.354Z,1.20
2023-04-15T16:36:22.191Z,1.02
2023-04-15T16:38:53.560Z,1.30
2023-04-15T16:41:21.098Z,2.97
2023-04-15T16:43:54.488Z,1.40
2023-04-15T16:46:21.811Z,1.30
2023-04-15T16:48:53.413Z,1.50
2023-04-15T16:51:20.745Z,1.77
2023-04-15T16:53:52.783Z,1.48
2023-04-15T16:56:21.629Z,1.50
2023-04-15T16:58:48.849Z,1.55
2023-04-15T17:01:16.219Z,1.63
2023-04-15T17:03:44.086Z,1.30
2023-04-15T17:06:16.412Z,1.23
2023-04-15T17:08:44.942Z,2.33
2023-04-15T17:11:12.434Z,1.38
2023-04-15T17:13:39.612Z,1.40
2023-04-15T17:16:12.080Z,1.35
2023-04-15T17:18:38.989Z,1.40
2023-04-15T17:21:06.156Z,1.17
2023-04-15T17:23:40.064Z,1.08
2023-04-15T17:26:06.920Z,1.20
2023-04-15T17:28:34.385Z,1.25
2023-04-15T17:31:01.864Z,1.30
2023-04-15T17:33:56.354Z,1.10
2023-04-15T17:36:19.582Z,1.50
2023-04-15T17:38:47.020Z,1.42
2023-04-15T17:41:14.103Z,1.55
2023-04-15T17:43:41.378Z,1.45
2023-04-15T17:46:08.368Z,1.48
2023-04-15T17:48:35.344Z,1.58
2023-04-15T17:51:02.518Z,1.48
2023-04-15T17:53:29.439Z,2.33
2023-04-15T17:55:57.570Z,1.60
2023-04-15T17:58:24.468Z,1.50
2023-04-15T18:00:51.289Z,1.40
2023-04-15T18:03:18.176Z,1.95
2023-04-15T18:05:45.224Z,1.85
2023-04-15T18:08:12.076Z,1.70
2023-04-15T18:10:39.406Z,1.80
2023-04-15T18:13:06.448Z,1.90
2023-04-15T18:15:33.382Z,1.63
2023-04-15T18:18:00.936Z,1.70
2023-04-15T18:20:29.522Z,2.00
2023-04-15T18:22:57.009Z,2.35
2023-04-15T18:25:23.917Z,2.00
2023-04-15T18:27:50.869Z,1.80
2023-04-15T18:30:17.708Z,2.00
2023-04-15T18:32:44.729Z,2.17
2023-04-15T18:35:11.775Z,2.10
2023-04-15T18:37:38.918Z,2.05
2023-04-15T18:40:07.425Z,2.10
2023-04-15T18:42:34.207Z,2.60
2023-04-15T18:45:01.076Z,2.22
2023-04-15T18:47:28.178Z,2.63
2023-04-15T18:49:55.246Z,2.60
2023-04-15T18:52:22.093Z,2.67
2023-04-15T18:54:49.199Z,2.65
2023-04-15T18:57:23.539Z,2.80
2023-04-15T18:59:59.939Z,2.30
2023-04-15T19:02:27.067Z,2.50
2023-04-15T19:04:53.971Z,2.47
2023-04-15T19:07:20.848Z,2.30
2023-04-15T19:09:47.726Z,2.42
2023-04-15T19:12:14.535Z,2.58
2023-04-15T19:14:41.615Z,2.60
2023-04-15T19:17:08.418Z,2.58
2023-04-15T19:19:35.349Z,2.90
2023-04-15T19:22:03.448Z,2.83
2023-04-15T19:24:33.109Z,2.70
2023-04-15T19:27:01.380Z,3.13
2023-04-15T19:29:28.701Z,3.15
2023-04-15T19:31:55.996Z,2.90
2023-04-15T19:34:23.129Z,3.03
2023-04-15T19:36:50.044Z,2.58
2023-04-15T19:39:18.519Z,2.78
2023-04-15T19:41:45.827Z,3.70
2023-04-15T19:44:13.490Z,3.78
2023-04-15T19:46:43.527Z,3.22
2023-04-15T19:49:10.725Z,3.22
2023-04-15T19:51:37.572Z,3.55
2023-04-15T19:54:04.406Z,3.60
2023-04-15T19:56:32.921Z,3.22
2023-04-15T19:59:02.158Z,3.22
2023-04-15T20:01:29.142Z,3.13
2023-04-15T20:03:56.251Z,3.63
2023-04-15T20:06:23.262Z,3.33
2023-04-15T20:08:50.223Z,3.35
2023-04-15T20:11:17.014Z,4.10
2023-04-15T20:13:43.843Z,3.38
2023-04-15T20:16:11.677Z,3.30
2023-04-15T20:18:39.069Z,3.70
2023-04-15T20:21:05.993Z,4.15
2023-04-15T20:23:35.667Z,3.80
2023-04-15T20:26:02.481Z,3.80
2023-04-15T20:28:29.438Z,4.30
2023-04-15T20:30:56.336Z,4.30
2023-04-15T20:33:24.656Z,4.07
2023-04-15T20:35:51.847Z,4.10
2023-04-15T20:38:18.813Z,3.63
2023-04-15T20:40:45.723Z,3.55
2023-04-15T20:43:12.677Z,4.35
2023-04-15T20:45:39.581Z,4.35
2023-04-15T20:48:06.687Z,4.85
2023-04-15T20:50:33.633Z,4.30
2023-04-15T20:53:00.793Z,4.07
2023-04-15T20:55:28.988Z,4.47
2023-04-15T20:57:58.237Z,3.92
2023-04-15T21:00:25.222Z,3.72
2023-04-15T21:02:52.121Z,3.90
2023-04-15T21:05:19.015Z,3.55
2023-04-15T21:07:45.811Z,4.25
2023-04-15T21:10:12.627Z,4.30
2023-04-15T21:12:41.001Z,4.03
2023-04-15T21:15:08.913Z,4.07
2023-04-15T21:17:35.772Z,3.50
2023-04-15T21:20:05.221Z,3.88
2023-04-15T21:22:32.350Z,4.22
2023-04-15T21:24:59.210Z,4.25
2023-04-15T21:27:26.183Z,4.78
2023-04-15T21:29:53.048Z,4.30
2023-04-15T21:32:19.949Z,4.90
2023-04-15T21:34:46.788Z,4.72
2023-04-15T21:37:13.662Z,4.85
2023-04-15T21:39:40.581Z,5.10
2023-04-15T21:42:07.412Z,5.35
2023-04-15T21:44:34.208Z,4.82
2023-04-15T21:47:01.118Z,4.95
2023-04-15T21:49:27.974Z,4.45
2023-04-15T21:51:54.807Z,5.28
2023-04-15T21:54:21.646Z,4.75
2023-04-15T21:56:49.678Z,5.20
2023-04-15T21:59:16.589Z,4.93
2023-04-15T22:01:43.537Z,4.32
2023-04-15T22:04:11.183Z,4.97
2023-04-15T22:06:38.610Z,5.10
2023-04-15T22:09:05.748Z,5.20
2023-04-15T22:11:32.920Z,4.88
2023-04-15T22:14:01.077Z,4.68
2023-04-15T22:16:28.489Z,5.35
2023-04-15T22:18:56.102Z,4.40
2023-04-15T22:21:23.443Z,4.43
2023-04-15T22:23:51.032Z,4.32
2023-04-15T22:26:17.837Z,5.10
2023-04-15T22:28:45.239Z,4.30
2023-04-15T22:31:12.189Z,4.85
2023-04-15T22:33:39.168Z,4.28
2023-04-15T22:36:06.299Z,4.45
2023-04-15T22:38:33.775Z,4.32
2023-04-15T22:41:00.558Z,3.88
2023-04-15T22:43:27.721Z,3.55
2023-04-15T22:45:54.909Z,3.83
2023-04-15T22:48:22.129Z,4.10
2023-04-15T22:50:49.393Z,3.42
2023-04-15T22:53:20.016Z,3.60
2023-04-15T22:55:48.462Z,3.80
2023-04-15T22:58:16.940Z,4.13
2023-04-15T23:00:44.587Z,3.67
2023-04-15T23:03:12.425Z,4.28
2023-04-15T23:05:41.045Z,4.15
2023-04-15T23:08:08.099Z,4.25
2023-04-15T23:10:34.876Z,4.35
2023-04-15T23:13:01.802Z,4.20
2023-04-15T23:15:28.819Z,4.88
2023-04-15T23:17:55.688Z,4.47
2023-04-15T23:20:22.583Z,4.70
2023-04-15T23:22:49.564Z,4.63
2023-04-15T23:25:16.582Z,4.97
2023-04-15T23:27:43.491Z,5.32
2023-04-15T23:30:11.812Z,5.05
2023-04-15T23:32:38.866Z,5.40
2023-04-15T23:35:06.129Z,5.03
2023-04-15T23:37:32.972Z,5.97
2023-04-15T23:39:59.833Z,6.50
2023-04-15T23:42:27.009Z,6.88
2023-04-15T23:44:53.916Z,6.55
2023-04-15T23:47:21.659Z,5.47
2023-04-15T23:49:48.582Z,5.85
2023-04-15T23:52:16.523Z,5.30
2023-04-15T23:54:43.317Z,5.65
2023-04-15T23:57:12.693Z,6.22
2023-04-15T23:59:39.882Z,5.78
